createdAt,value
2019-05-10T00:00:35.205Z,5.27
2019-05-10T00:03:21.025Z,5.10
2019-05-10T00:06:07.066Z,5.07
2019-05-10T00:08:46.795Z,5.40
2019-05-10T00:11:35.889Z,5.33
2019-05-10T00:14:09.817Z,5.70
2019-05-10T00:16:38.405Z,5.87
2019-05-10T00:19:06.703Z,5.03
2019-05-10T00:21:35.266Z,4.40
2019-05-10T00:24:03.565Z,4.60
2019-05-10T00:26:31.860Z,4.77
2019-05-10T00:29:00.225Z,5.33
2019-05-10T00:31:28.518Z,5.13
2019-05-10T00:33:56.808Z,5.67
2019-05-10T00:36:25.157Z,5.53
2019-05-10T00:38:53.552Z,5.67
2019-05-10T00:41:21.825Z,4.80
2019-05-10T00:43:50.127Z,4.30
2019-05-10T00:46:18.402Z,4.90
2019-05-10T00:48:46.728Z,5.03
2019-05-10T00:51:15.011Z,4.50
2019-05-10T00:53:43.289Z,4.30
2019-05-10T00:56:11.590Z,3.90
2019-05-10T00:58:39.881Z,3.57
2019-05-10T01:01:08.177Z,3.13
2019-05-10T01:03:36.453Z,3.50
2019-05-10T01:06:04.747Z,3.27
2019-05-10T01:08:33.035Z,3.77
2019-05-10T01:11:01.408Z,3.63
2019-05-10T01:13:29.718Z,3.70
2019-05-10T01:15:58.019Z,3.80
2019-05-10T01:18:26.298Z,3.67
2019-05-10T01:20:54.617Z,3.40
2019-05-10T01:23:26.059Z,3.17
2019-05-10T01:25:54.342Z,3.13
2019-05-10T01:28:22.630Z,3.40
2019-05-10T01:30:50.916Z,3.50
2019-05-10T01:33:19.289Z,3.40
2019-05-10T01:35:47.591Z,3.10
2019-05-10T01:38:15.866Z,3.23
2019-05-10T01:40:44.146Z,3.07
2019-05-10T01:43:12.510Z,3.80
2019-05-10T01:45:40.796Z,2.90
2019-05-10T01:48:09.093Z,3.20
2019-05-10T01:50:37.385Z,2.60
2019-05-10T01:53:05.673Z,2.90
2019-05-10T01:55:49.642Z,3.00
2019-05-10T01:58:03.963Z,3.03
2019-05-10T02:00:32.245Z,3.17
2019-05-10T02:03:00.551Z,3.60
2019-05-10T02:05:28.827Z,3.27
2019-05-10T02:07:57.107Z,3.30
2019-05-10T02:10:25.399Z,2.80
2019-05-10T02:12:53.683Z,3.37
2019-05-10T02:15:22.049Z,3.20
2019-05-10T02:17:50.325Z,3.03
2019-05-10T02:20:19.151Z,2.90
2019-05-10T02:22:47.449Z,3.20
2019-05-10T02:25:15.787Z,2.63
2019-05-10T02:27:44.079Z,3.17
2019-05-10T02:30:14.315Z,3.77
2019-05-10T02:32:42.602Z,3.17
2019-05-10T02:35:10.951Z,2.90
2019-05-10T02:37:39.242Z,2.97
2019-05-10T02:40:07.657Z,3.03
2019-05-10T02:42:36.034Z,2.90
2019-05-10T02:45:06.821Z,3.37
2019-05-10T02:47:35.193Z,3.40
2019-05-10T02:50:05.233Z,2.93
2019-05-10T02:52:33.577Z,3.30
2019-05-10T02:55:01.924Z,3.40
2019-05-10T02:57:30.160Z,2.90
2019-05-10T02:59:58.902Z,3.17
2019-05-10T03:02:27.745Z,3.17
2019-05-10T03:04:56.764Z,3.37
2019-05-10T03:07:26.743Z,3.30
2019-05-10T03:09:55.013Z,2.90
2019-05-10T03:12:25.798Z,3.30
2019-05-10T03:14:55.645Z,3.40
2019-05-10T03:17:24.347Z,3.40
2019-05-10T03:19:53.662Z,3.63
2019-05-10T03:22:22.584Z,3.77
2019-05-10T03:24:50.876Z,3.57
2019-05-10T03:27:19.221Z,3.70
2019-05-10T03:29:47.584Z,3.17
2019-05-10T03:32:16.144Z,3.40
2019-05-10T03:34:44.456Z,3.30
2019-05-10T03:37:12.731Z,3.27
2019-05-10T03:39:41.102Z,3.30
2019-05-10T03:42:09.382Z,3.47
2019-05-10T03:44:37.683Z,3.43
2019-05-10T03:47:06.040Z,3.50
2019-05-10T03:49:34.333Z,3.50
2019-05-10T03:52:02.658Z,3.83
2019-05-10T03:54:30.920Z,4.20
2019-05-10T03:57:12.041Z,4.47
2019-05-10T03:59:29.238Z,4.70
2019-05-10T04:01:57.605Z,4.33
2019-05-10T04:04:25.948Z,4.40
2019-05-10T04:06:54.241Z,4.90
2019-05-10T04:09:22.589Z,5.17
2019-05-10T04:11:50.960Z,5.33
2019-05-10T04:14:19.245Z,5.80
2019-05-10T04:16:47.517Z,5.43
2019-05-10T04:19:15.824Z,5.63
2019-05-10T04:21:44.113Z,5.53
2019-05-10T04:24:12.406Z,5.60
2019-05-10T04:26:40.689Z,5.20
2019-05-10T04:29:09.062Z,5.33
2019-05-10T04:31:37.350Z,5.43
2019-05-10T04:34:05.719Z,5.50
2019-05-10T04:36:34.006Z,5.70
2019-05-10T04:39:02.334Z,5.43
2019-05-10T04:41:30.629Z,5.10
2019-05-10T04:43:58.924Z,4.87
2019-05-10T04:46:27.217Z,5.47
2019-05-10T04:48:55.518Z,6.00
2019-05-10T04:51:23.806Z,5.47
2019-05-10T04:53:52.084Z,5.90
2019-05-10T04:56:20.377Z,5.60
2019-05-10T04:58:48.669Z,6.60
2019-05-10T05:01:16.974Z,6.17
2019-05-10T05:03:45.247Z,6.00
2019-05-10T05:06:13.549Z,6.30
2019-05-10T05:08:41.829Z,7.03
2019-05-10T05:11:10.133Z,6.93
2019-05-10T05:13:38.406Z,6.97
2019-05-10T05:16:06.684Z,7.27
2019-05-10T05:18:34.976Z,7.57
2019-05-10T05:21:03.280Z,7.93
2019-05-10T05:23:31.581Z,7.97
2019-05-10T05:25:59.869Z,8.20
2019-05-10T05:28:28.176Z,7.80
2019-05-10T05:30:56.451Z,10.47
2019-05-10T05:33:24.749Z,9.20
2019-05-10T05:35:53.040Z,11.33
2019-05-10T05:38:21.331Z,8.43
2019-05-10T05:40:50.622Z,8.17
2019-05-10T05:43:18.913Z,8.43
2019-05-10T05:45:47.191Z,7.67
2019-05-10T05:48:15.976Z,8.63
2019-05-10T05:50:45.567Z,8.57
2019-05-10T05:53:13.875Z,8.70
2019-05-10T05:55:42.163Z,7.73
2019-05-10T05:58:25.375Z,7.90
2019-05-10T06:00:44.792Z,8.03
2019-05-10T06:03:10.542Z,7.80
2019-05-10T06:05:38.918Z,9.10
2019-05-10T06:08:21.889Z,9.27
2019-05-10T06:10:37.228Z,8.87
2019-05-10T06:13:05.593Z,8.20
2019-05-10T06:15:33.880Z,9.47
2019-05-10T06:18:03.418Z,8.87
2019-05-10T06:20:32.180Z,9.57
2019-05-10T06:23:07.549Z,9.57
2019-05-10T06:25:39.387Z,9.23
2019-05-10T06:28:00.516Z,10.00
2019-05-10T06:30:28.832Z,11.10
2019-05-10T06:33:00.894Z,9.83
2019-05-10T06:35:27.132Z,9.13
2019-05-10T06:37:55.427Z,10.20
2019-05-10T06:40:33.476Z,13.20
2019-05-10T06:42:53.731Z,9.87
2019-05-10T06:45:22.026Z,10.43
2019-05-10T06:47:53.485Z,19.90
2019-05-10T06:50:28.840Z,34.20
2019-05-10T06:52:52.372Z,17.37
2019-05-10T06:55:20.769Z,11.50
2019-05-10T06:57:50.478Z,22.20
2019-05-10T07:00:19.518Z,11.43
2019-05-10T07:02:47.838Z,14.80
2019-05-10T07:05:16.125Z,20.03
2019-05-10T07:07:45.525Z,35.83
2019-05-10T07:10:19.195Z,93.37
2019-05-10T07:12:45.458Z,224.20
2019-05-10T07:15:14.209Z,179.23
2019-05-10T07:17:46.997Z,109.33
2019-05-10T07:20:12.779Z,194.80
2019-05-10T07:22:41.071Z,74.17
2019-05-10T07:25:09.381Z,155.37
2019-05-10T07:27:38.614Z,256.03
2019-05-10T07:30:07.493Z,209.97
2019-05-10T07:32:35.786Z,384.67
2019-05-10T07:35:05.840Z,401.60
2019-05-10T07:37:34.774Z,430.60
2019-05-10T07:40:04.048Z,348.57
2019-05-10T07:42:32.353Z,539.50
2019-05-10T07:45:00.643Z,553.43
2019-05-10T07:47:30.575Z,530.33
2019-05-10T07:50:03.833Z,606.27
2019-05-10T07:52:29.075Z,605.70
2019-05-10T07:54:57.364Z,748.90
2019-05-10T07:57:27.061Z,784.80
2019-05-10T07:59:57.732Z,743.83
2019-05-10T08:02:25.605Z,472.27
2019-05-10T08:04:54.173Z,502.93
2019-05-10T08:07:22.489Z,676.63
2019-05-10T08:09:50.792Z,687.37
2019-05-10T08:12:19.601Z,593.10
2019-05-10T08:14:50.137Z,591.27
2019-05-10T08:17:19.217Z,770.73
2019-05-10T08:19:47.676Z,869.33
2019-05-10T08:22:15.999Z,958.57
2019-05-10T08:24:52.129Z,956.73
2019-05-10T08:27:14.969Z,974.20
2019-05-10T08:29:43.504Z,999.90
2019-05-10T08:32:12.826Z,999.90
2019-05-10T08:34:51.824Z,999.90
2019-05-10T08:37:12.857Z,999.90
2019-05-10T08:39:49.081Z,999.90
2019-05-10T08:42:29.356Z,988.87
2019-05-10T08:44:42.756Z,999.90
2019-05-10T08:47:15.753Z,999.90
2019-05-10T08:49:55.092Z,999.90
2019-05-10T08:52:12.159Z,999.90
2019-05-10T08:54:42.327Z,999.90
2019-05-10T08:57:17.862Z,998.77
2019-05-10T08:59:42.755Z,999.90
2019-05-10T09:02:12.571Z,999.90
2019-05-10T09:04:47.168Z,999.90
2019-05-10T09:07:11.905Z,999.90
2019-05-10T09:09:45.623Z,999.90
2019-05-10T09:12:12.343Z,999.90
2019-05-10T09:14:42.434Z,999.90
2019-05-10T09:17:14.741Z,999.90
2019-05-10T09:19:41.697Z,960.87
2019-05-10T09:22:12.351Z,918.13
2019-05-10T09:24:48.307Z,987.50
2019-05-10T09:27:12.775Z,990.30
2019-05-10T09:29:42.928Z,999.90
2019-05-10T09:32:12.531Z,999.90
2019-05-10T09:34:42.685Z,991.20
2019-05-10T09:37:14.294Z,984.83
2019-05-10T09:39:42.456Z,992.10
2019-05-10T09:42:25.132Z,989.97
2019-05-10T09:44:40.987Z,941.20
2019-05-10T09:47:09.291Z,995.03
2019-05-10T09:49:37.606Z,999.90
2019-05-10T09:52:12.805Z,835.47
2019-05-10T09:54:37.943Z,701.13
2019-05-10T09:57:08.240Z,580.60
2019-05-10T09:59:36.863Z,684.50
2019-05-10T10:02:14.668Z,597.93
2019-05-10T10:04:37.204Z,579.67
2019-05-10T10:07:05.554Z,438.67
2019-05-10T10:09:41.960Z,561.47
2019-05-10T10:12:03.889Z,397.17
2019-05-10T10:14:38.179Z,510.23
2019-05-10T10:17:03.205Z,377.80
2019-05-10T10:19:31.787Z,318.13
2019-05-10T10:22:00.106Z,461.47
2019-05-10T10:24:28.566Z,35.23
2019-05-10T10:26:58.161Z,449.80
2019-05-10T10:29:28.630Z,177.87
2019-05-10T10:31:58.897Z,148.57
2019-05-10T10:34:27.258Z,9.10
2019-05-10T10:36:57.996Z,9.30
2019-05-10T10:39:27.603Z,14.07
2019-05-10T10:41:57.093Z,116.50
2019-05-10T10:44:27.111Z,18.23
2019-05-10T10:46:58.057Z,417.93
2019-05-10T10:49:30.284Z,596.87
2019-05-10T10:51:57.358Z,216.73
2019-05-10T10:54:28.642Z,118.10
2019-05-10T10:56:59.236Z,87.57
2019-05-10T10:59:25.821Z,6.60
2019-05-10T11:02:25.373Z,26.40
2019-05-10T11:04:24.130Z,14.63
2019-05-10T11:07:08.900Z,139.27
2019-05-10T11:09:22.453Z,16.30
2019-05-10T11:11:51.525Z,71.73
2019-05-10T11:14:20.649Z,15.23
2019-05-10T11:16:52.852Z,9.73
2019-05-10T11:19:20.441Z,5.10
2019-05-10T11:21:51.251Z,5.50
2019-05-10T11:24:20.746Z,5.70
2019-05-10T11:26:51.503Z,11.03
2019-05-10T11:29:25.462Z,11.83
2019-05-10T11:32:10.355Z,10.50
2019-05-10T11:34:21.475Z,8.93
2019-05-10T11:36:51.156Z,10.27
2019-05-10T11:39:26.254Z,9.30
2019-05-10T11:41:53.327Z,8.77
2019-05-10T11:44:21.592Z,8.77
2019-05-10T11:46:50.776Z,11.47
2019-05-10T11:49:20.452Z,11.07
2019-05-10T11:51:54.877Z,10.40
2019-05-10T11:54:21.393Z,11.20
2019-05-10T11:56:51.958Z,12.47
2019-05-10T11:59:21.673Z,14.17
2019-05-10T12:01:54.777Z,14.33
2019-05-10T12:04:28.131Z,14.03
2019-05-10T12:06:50.211Z,12.83
2019-05-10T12:09:21.239Z,14.07
2019-05-10T12:11:56.101Z,13.30
2019-05-10T12:14:21.835Z,11.93
2019-05-10T12:16:49.184Z,10.83
2019-05-10T12:19:21.268Z,10.93
2019-05-10T12:21:47.484Z,9.60
2019-05-10T12:24:38.974Z,12.03
2019-05-10T12:29:17.282Z,9.50
2019-05-10T12:31:47.584Z,9.37
2019-05-10T12:34:15.711Z,7.47
2019-05-10T12:36:43.989Z,10.40
2019-05-10T12:39:12.288Z,7.20
2019-05-10T12:41:47.750Z,8.33
2019-05-10T12:44:11.236Z,7.97
2019-05-10T12:46:42.112Z,7.77
2019-05-10T12:49:11.975Z,7.60
2019-05-10T12:51:40.918Z,7.03
2019-05-10T12:54:11.282Z,6.60
2019-05-10T12:56:43.718Z,7.37
2019-05-10T12:59:09.916Z,7.40
2019-05-10T13:01:38.195Z,6.60
2019-05-10T13:04:13.445Z,6.70
2019-05-10T13:06:36.500Z,6.57
2019-05-10T13:09:07.183Z,6.10
2019-05-10T13:11:35.570Z,6.53
2019-05-10T13:14:07.602Z,6.10
2019-05-10T13:16:33.976Z,6.90
2019-05-10T13:19:02.250Z,6.07
2019-05-10T13:21:30.666Z,6.00
2019-05-10T13:23:58.989Z,6.30
2019-05-10T13:26:27.277Z,6.20
2019-05-10T13:28:55.575Z,7.17
2019-05-10T13:31:23.875Z,6.13
2019-05-10T13:33:52.156Z,5.93
2019-05-10T13:36:20.452Z,5.47
2019-05-10T13:38:49.493Z,6.47
2019-05-10T13:41:23.865Z,5.17
2019-05-10T13:43:47.953Z,5.27
2019-05-10T13:46:16.211Z,4.73
2019-05-10T13:48:44.510Z,5.17
2019-05-10T13:51:12.803Z,5.03
2019-05-10T13:53:41.083Z,4.70
2019-05-10T13:56:09.393Z,4.30
2019-05-10T13:58:37.679Z,4.60
2019-05-10T14:01:06.805Z,4.97
2019-05-10T14:03:44.135Z,5.07
2019-05-10T14:06:05.982Z,4.80
2019-05-10T14:08:34.282Z,4.93
2019-05-10T14:11:03.359Z,4.47
2019-05-10T14:13:35.789Z,4.73
2019-05-10T14:16:01.707Z,4.37
2019-05-10T14:18:30.007Z,4.27
2019-05-10T14:21:09.543Z,4.40
2019-05-10T14:23:37.850Z,4.60
2019-05-10T14:26:13.504Z,4.33
2019-05-10T14:28:39.175Z,4.23
2019-05-10T14:31:07.447Z,4.37
2019-05-10T14:33:37.742Z,4.60
2019-05-10T14:36:06.026Z,4.63
2019-05-10T14:38:34.300Z,7.73
2019-05-10T14:41:03.888Z,11.30
2019-05-10T14:43:32.740Z,4.80
2019-05-10T14:46:01.058Z,5.43
2019-05-10T14:48:31.197Z,5.27
2019-05-10T14:51:03.135Z,4.70
2019-05-10T14:53:29.334Z,4.33
2019-05-10T14:55:57.635Z,4.60
2019-05-10T14:58:25.919Z,4.60
2019-05-10T15:00:54.251Z,5.07
2019-05-10T15:03:22.486Z,4.80
2019-05-10T15:05:55.414Z,4.50
2019-05-10T15:08:20.800Z,5.10
2019-05-10T15:10:49.093Z,5.00
2019-05-10T15:13:19.507Z,4.63
2019-05-10T15:15:47.379Z,4.40
2019-05-10T15:18:15.667Z,4.53
2019-05-10T15:20:44.216Z,4.13
2019-05-10T15:23:12.495Z,4.50
2019-05-10T15:25:55.749Z,5.27
2019-05-10T15:28:10.807Z,5.07
2019-05-10T15:30:45.253Z,5.30
2019-05-10T15:33:09.174Z,4.63
2019-05-10T15:35:37.466Z,5.57
2019-05-10T15:38:05.749Z,4.77
2019-05-10T15:40:38.724Z,4.77
2019-05-10T15:43:04.050Z,5.00
2019-05-10T15:45:34.043Z,4.57
2019-05-10T15:48:03.058Z,5.03
2019-05-10T15:50:37.666Z,4.70
2019-05-10T15:53:02.404Z,4.73
2019-05-10T15:55:30.748Z,4.70
2019-05-10T15:58:00.267Z,4.57
2019-05-10T16:00:37.415Z,4.23
2019-05-10T16:02:58.741Z,4.47
2019-05-10T16:05:42.351Z,4.20
2019-05-10T16:07:57.124Z,4.90
2019-05-10T16:10:28.352Z,3.97
2019-05-10T16:12:55.416Z,4.77
2019-05-10T16:15:23.700Z,4.17
2019-05-10T16:17:53.805Z,4.20
2019-05-10T16:20:21.997Z,4.63
2019-05-10T16:22:50.297Z,4.77
2019-05-10T16:25:18.592Z,4.30
2019-05-10T16:27:46.893Z,4.33
2019-05-10T16:30:17.818Z,4.50
2019-05-10T16:32:45.321Z,4.83
2019-05-10T16:35:14.713Z,3.90
2019-05-10T16:37:43.147Z,4.37
2019-05-10T16:40:11.603Z,4.40
2019-05-10T16:42:39.901Z,4.70
2019-05-10T16:45:08.722Z,4.70
2019-05-10T16:47:37.015Z,4.67
2019-05-10T16:50:09.376Z,4.50
2019-05-10T16:52:37.931Z,3.47
2019-05-10T16:55:09.614Z,3.40
2019-05-10T16:57:39.376Z,2.63
2019-05-10T17:00:10.663Z,2.47
2019-05-10T17:02:42.237Z,2.30
2019-05-10T17:05:14.927Z,2.73
2019-05-10T17:07:39.702Z,1.90
2019-05-10T17:10:08.301Z,2.00
2019-05-10T17:12:36.583Z,1.80
2019-05-10T17:15:05.948Z,2.00
2019-05-10T17:17:37.039Z,1.67
2019-05-10T17:20:07.539Z,1.50
2019-05-10T17:22:36.325Z,1.67
2019-05-10T17:25:08.544Z,1.63
2019-05-10T17:27:36.829Z,2.00
2019-05-10T17:30:06.151Z,2.27
2019-05-10T17:32:34.440Z,1.80
2019-05-10T17:35:04.812Z,2.50
2019-05-10T17:37:35.750Z,1.90
2019-05-10T17:40:04.747Z,2.20
2019-05-10T17:42:35.700Z,2.43
2019-05-10T17:45:04.611Z,2.27
2019-05-10T17:47:33.787Z,2.70
2019-05-10T17:50:02.129Z,2.40
2019-05-10T17:52:30.480Z,2.43
2019-05-10T17:54:58.834Z,2.67
2019-05-10T17:57:27.118Z,2.53
2019-05-10T17:59:55.411Z,2.73
2019-05-10T18:02:23.691Z,2.70
2019-05-10T18:04:51.983Z,2.47
2019-05-10T18:07:20.292Z,2.60
2019-05-10T18:09:48.546Z,3.30
2019-05-10T18:12:20.510Z,3.00
2019-05-10T18:14:50.159Z,3.00
2019-05-10T18:17:20.769Z,3.40
2019-05-10T18:19:46.860Z,3.20
2019-05-10T18:22:15.138Z,3.10
2019-05-10T18:24:43.437Z,3.17
2019-05-10T18:27:11.718Z,3.43
2019-05-10T18:29:40.007Z,3.37
2019-05-10T18:32:10.946Z,3.23
2019-05-10T18:34:38.306Z,3.30
2019-05-10T18:37:06.588Z,3.03
2019-05-10T18:39:34.891Z,3.30
2019-05-10T18:42:03.161Z,3.43
2019-05-10T18:44:31.458Z,2.83
2019-05-10T18:46:59.736Z,3.23
2019-05-10T18:49:28.047Z,3.07
2019-05-10T18:52:03.720Z,3.77
2019-05-10T18:54:26.335Z,3.20
2019-05-10T18:56:54.646Z,4.50
2019-05-10T18:59:22.998Z,4.33
2019-05-10T19:01:51.281Z,4.03
2019-05-10T19:04:19.571Z,3.90
2019-05-10T19:06:50.044Z,4.00
2019-05-10T19:09:17.954Z,3.73
2019-05-10T19:11:46.304Z,4.70
2019-05-10T19:14:14.731Z,4.80
2019-05-10T19:16:43.049Z,5.17
2019-05-10T19:19:11.328Z,4.50
2019-05-10T19:21:39.653Z,4.83
2019-05-10T19:24:08.307Z,4.67
2019-05-10T19:26:36.593Z,5.10
2019-05-10T19:29:06.667Z,6.20
2019-05-10T19:31:38.181Z,5.97
2019-05-10T19:34:09.014Z,4.57
2019-05-10T19:36:35.345Z,4.87
2019-05-10T19:39:05.575Z,4.87
2019-05-10T19:41:33.856Z,5.30
2019-05-10T19:44:04.455Z,5.20
2019-05-10T19:46:39.076Z,5.40
2019-05-10T19:49:02.176Z,5.00
2019-05-10T19:51:30.456Z,5.43
2019-05-10T19:53:58.751Z,5.97
2019-05-10T19:56:29.957Z,6.43
2019-05-10T19:58:57.051Z,5.37
2019-05-10T20:01:25.333Z,5.10
2019-05-10T20:03:53.617Z,6.20
2019-05-10T20:06:21.990Z,6.17
2019-05-10T20:08:50.265Z,6.27
2019-05-10T20:11:18.561Z,5.00
2019-05-10T20:13:46.852Z,6.10
2019-05-10T20:16:15.147Z,5.73
2019-05-10T20:18:43.432Z,5.40
2019-05-10T20:21:11.731Z,5.10
2019-05-10T20:23:40.011Z,6.13
2019-05-10T20:26:08.316Z,5.20
2019-05-10T20:28:36.675Z,6.00
2019-05-10T20:31:04.974Z,5.43
2019-05-10T20:33:33.254Z,5.43
2019-05-10T20:36:01.569Z,5.43
2019-05-10T20:38:29.847Z,5.30
2019-05-10T20:40:58.142Z,6.40
2019-05-10T20:43:26.419Z,4.80
2019-05-10T20:45:54.706Z,6.33
2019-05-10T20:48:23.044Z,5.33
2019-05-10T20:50:51.393Z,5.83
2019-05-10T20:53:19.686Z,5.40
2019-05-10T20:55:48.027Z,4.97
2019-05-10T20:58:16.337Z,6.00
2019-05-10T21:00:45.323Z,5.67
2019-05-10T21:03:13.623Z,5.40
2019-05-10T21:05:41.903Z,5.47
2019-05-10T21:08:16.785Z,5.43
2019-05-10T21:10:40.196Z,5.07
2019-05-10T21:13:08.488Z,5.20
2019-05-10T21:15:36.769Z,5.40
2019-05-10T21:18:05.066Z,5.77
2019-05-10T21:20:33.357Z,5.80
2019-05-10T21:23:01.658Z,4.90
2019-05-10T21:25:29.936Z,5.60
2019-05-10T21:27:58.234Z,6.07
2019-05-10T21:30:26.509Z,5.57
2019-05-10T21:32:54.794Z,5.17
2019-05-10T21:35:23.085Z,4.90
2019-05-10T21:37:51.360Z,5.53
2019-05-10T21:40:19.659Z,5.40
2019-05-10T21:42:47.946Z,5.80
2019-05-10T21:45:16.246Z,5.53
2019-05-10T21:47:51.468Z,5.40
2019-05-10T21:50:14.610Z,6.07
2019-05-10T21:52:42.888Z,5.83
2019-05-10T21:55:11.178Z,5.67
2019-05-10T21:57:39.452Z,5.23
2019-05-10T22:00:09.592Z,4.80
2019-05-10T22:02:37.877Z,5.33
2019-05-10T22:05:06.327Z,5.10
2019-05-10T22:07:34.614Z,5.20
2019-05-10T22:10:03.455Z,5.37
2019-05-10T22:12:31.761Z,5.30
2019-05-10T22:15:00.035Z,5.40
2019-05-10T22:17:28.320Z,5.60
2019-05-10T22:19:56.597Z,5.40
2019-05-10T22:22:24.887Z,5.60
2019-05-10T22:24:53.162Z,5.57
2019-05-10T22:27:21.457Z,5.67
2019-05-10T22:29:49.730Z,5.53
2019-05-10T22:32:18.025Z,6.00
2019-05-10T22:34:46.318Z,5.77
2019-05-10T22:37:14.614Z,5.60
2019-05-10T22:39:42.903Z,5.93
2019-05-10T22:42:11.192Z,5.80
2019-05-10T22:44:39.474Z,5.43
2019-05-10T22:47:08.015Z,6.03
2019-05-10T22:49:36.311Z,5.83
2019-05-10T22:52:04.595Z,5.17
2019-05-10T22:54:32.891Z,5.70
2019-05-10T22:57:01.174Z,5.50
2019-05-10T22:59:29.472Z,5.83
2019-05-10T23:01:57.745Z,6.20
2019-05-10T23:04:26.033Z,5.60
2019-05-10T23:06:54.312Z,6.33
2019-05-10T23:09:24.931Z,5.83
2019-05-10T23:11:52.697Z,5.57
2019-05-10T23:14:21.021Z,31.93
2019-05-10T23:16:49.362Z,7.10
2019-05-10T23:19:17.774Z,6.30
2019-05-10T23:21:46.114Z,5.87
2019-05-10T23:24:16.519Z,5.73
2019-05-10T23:26:45.284Z,5.23
2019-05-10T23:29:13.612Z,5.77
2019-05-10T23:31:41.980Z,6.27
2019-05-10T23:34:10.386Z,5.83
2019-05-10T23:36:38.735Z,6.10
2019-05-10T23:39:07.854Z,6.77
2019-05-10T23:41:36.297Z,6.90
2019-05-10T23:44:04.708Z,6.73
2019-05-10T23:46:33.132Z,6.50
2019-05-10T23:49:01.498Z,6.63
2019-05-10T23:51:29.875Z,6.63
2019-05-10T23:53:58.151Z,6.43
2019-05-10T23:56:26.589Z,6.60
2019-05-10T23:58:54.937Z,6.07
